sensor_id;sensor_type;location;lat;lon;timestamp;P1;durP1;ratioP1;P2;durP2;ratioP2
18610;SDS011;9435;52.122;5.502;2024-03-22T00:02:24;75.60;;;32.58;;
18610;SDS011;9435;52.122;5.502;2024-03-22T00:04:50;76.68;;;31.92;;
18610;SDS011;9435;52.122;5.502;2024-03-22T00:07:17;81.18;;;32.63;;
18610;SDS011;9435;52.122;5.502;2024-03-22T00:09:43;76.10;;;32.03;;
18610;SDS011;9435;52.122;5.502;2024-03-22T00:12:10;76.35;;;32.10;;
18610;SDS011;9435;52.122;5.502;2024-03-22T00:14:36;72.32;;;31.40;;
18610;SDS011;9435;52.122;5.502;2024-03-22T00:17:05;77.20;;;32.15;;
18610;SDS011;9435;52.122;5.502;2024-03-22T00:19:31;75.22;;;31.85;;
18610;SDS011;9435;52.122;5.502;2024-03-22T00:21:58;78.22;;;32.40;;
18610;SDS011;9435;52.122;5.502;2024-03-22T00:24:24;74.38;;;31.50;;
18610;SDS011;9435;52.122;5.502;2024-03-22T00:26:51;76.30;;;32.70;;
18610;SDS011;9435;52.122;5.502;2024-03-22T00:29:17;72.82;;;31.38;;
18610;SDS011;9435;52.122;5.502;2024-03-22T00:31:44;77.30;;;32.17;;
18610;SDS011;9435;52.122;5.502;2024-03-22T00:34:11;73.75;;;32.20;;
18610;SDS011;9435;52.122;5.502;2024-03-22T00:36:38;76.88;;;32.85;;
18610;SDS011;9435;52.122;5.502;2024-03-22T00:39:04;84.72;;;33.78;;
18610;SDS011;9435;52.122;5.502;2024-03-22T00:41:32;79.38;;;32.55;;
18610;SDS011;9435;52.122;5.502;2024-03-22T00:43:58;80.00;;;34.75;;
18610;SDS011;9435;52.122;5.502;2024-03-22T00:46:25;83.82;;;33.40;;
18610;SDS011;9435;52.122;5.502;2024-03-22T00:48:51;80.38;;;33.80;;
18610;SDS011;9435;52.122;5.502;2024-03-22T00:51:19;83.55;;;34.78;;
18610;SDS011;9435;52.122;5.502;2024-03-22T00:53:45;78.43;;;33.90;;
18610;SDS011;9435;52.122;5.502;2024-03-22T00:56:12;82.63;;;34.42;;
18610;SDS011;9435;52.122;5.502;2024-03-22T00:58:38;83.80;;;35.45;;
18610;SDS011;9435;52.122;5.502;2024-03-22T01:01:05;84.45;;;33.70;;
18610;SDS011;9435;52.122;5.502;2024-03-22T01:03:31;83.93;;;34.33;;
18610;SDS011;9435;52.122;5.502;2024-03-22T01:05:58;83.75;;;34.95;;
18610;SDS011;9435;52.122;5.502;2024-03-22T01:08:26;88.20;;;35.42;;
18610;SDS011;9435;52.122;5.502;2024-03-22T01:10:53;88.75;;;35.45;;
18610;SDS011;9435;52.122;5.502;2024-03-22T01:13:19;88.57;;;35.60;;
18610;SDS011;9435;52.122;5.502;2024-03-22T01:15:46;87.20;;;36.53;;
18610;SDS011;9435;52.122;5.502;2024-03-22T01:18:12;88.90;;;36.10;;
18610;SDS011;9435;52.122;5.502;2024-03-22T01:20:39;93.13;;;35.90;;
18610;SDS011;9435;52.122;5.502;2024-03-22T01:23:07;95.57;;;35.88;;
18610;SDS011;9435;52.122;5.502;2024-03-22T01:25:36;90.93;;;36.03;;
18610;SDS011;9435;52.122;5.502;2024-03-22T01:28:02;87.57;;;35.05;;
18610;SDS011;9435;52.122;5.502;2024-03-22T01:30:29;89.72;;;36.75;;
18610;SDS011;9435;52.122;5.502;2024-03-22T01:32:55;90.85;;;35.95;;
18610;SDS011;9435;52.122;5.502;2024-03-22T01:35:22;97.60;;;36.10;;
18610;SDS011;9435;52.122;5.502;2024-03-22T01:37:48;89.90;;;36.80;;
18610;SDS011;9435;52.122;5.502;2024-03-22T01:40:16;94.20;;;37.38;;
18610;SDS011;9435;52.122;5.502;2024-03-22T01:42:43;99.82;;;38.28;;
18610;SDS011;9435;52.122;5.502;2024-03-22T01:45:10;95.72;;;36.47;;
18610;SDS011;9435;52.122;5.502;2024-03-22T01:47:39;90.40;;;37.38;;
18610;SDS011;9435;52.122;5.502;2024-03-22T01:50:06;93.70;;;37.55;;
18610;SDS011;9435;52.122;5.502;2024-03-22T01:52:34;100.43;;;38.72;;
18610;SDS011;9435;52.122;5.502;2024-03-22T01:55:02;101.85;;;38.05;;
18610;SDS011;9435;52.122;5.502;2024-03-22T01:57:31;99.50;;;37.90;;
18610;SDS011;9435;52.122;5.502;2024-03-22T02:00:01;99.47;;;39.63;;
18610;SDS011;9435;52.122;5.502;2024-03-22T02:02:28;100.57;;;38.20;;
18610;SDS011;9435;52.122;5.502;2024-03-22T02:04:55;93.47;;;38.25;;
18610;SDS011;9435;52.122;5.502;2024-03-22T02:07:22;99.80;;;37.72;;
18610;SDS011;9435;52.122;5.502;2024-03-22T02:09:49;98.43;;;38.45;;
18610;SDS011;9435;52.122;5.502;2024-03-22T02:12:15;93.93;;;37.35;;
18610;SDS011;9435;52.122;5.502;2024-03-22T02:14:42;97.65;;;38.85;;
18610;SDS011;9435;52.122;5.502;2024-03-22T02:17:10;99.10;;;38.92;;
18610;SDS011;9435;52.122;5.502;2024-03-22T02:19:37;98.93;;;39.00;;
18610;SDS011;9435;52.122;5.502;2024-03-22T02:22:03;102.10;;;38.95;;
18610;SDS011;9435;52.122;5.502;2024-03-22T02:24:32;105.90;;;40.13;;
18610;SDS011;9435;52.122;5.502;2024-03-22T02:26:58;96.47;;;39.95;;
18610;SDS011;9435;52.122;5.502;2024-03-22T02:29:25;102.10;;;39.58;;
18610;SDS011;9435;52.122;5.502;2024-03-22T02:31:51;102.50;;;40.13;;
18610;SDS011;9435;52.122;5.502;2024-03-22T02:34:18;104.13;;;39.58;;
18610;SDS011;9435;52.122;5.502;2024-03-22T02:36:44;98.88;;;39.33;;
18610;SDS011;9435;52.122;5.502;2024-03-22T02:39:11;98.40;;;39.95;;
18610;SDS011;9435;52.122;5.502;2024-03-22T02:41:39;103.45;;;40.08;;
18610;SDS011;9435;52.122;5.502;2024-03-22T02:44:06;107.97;;;41.22;;
18610;SDS011;9435;52.122;5.502;2024-03-22T02:46:32;97.20;;;39.00;;
18610;SDS011;9435;52.122;5.502;2024-03-22T02:48:59;97.68;;;39.80;;
18610;SDS011;9435;52.122;5.502;2024-03-22T02:51:25;101.90;;;40.13;;
18610;SDS011;9435;52.122;5.502;2024-03-22T02:53:52;99.57;;;39.45;;
18610;SDS011;9435;52.122;5.502;2024-03-22T02:56:19;98.57;;;41.00;;
18610;SDS011;9435;52.122;5.502;2024-03-22T02:58:47;98.63;;;39.05;;
18610;SDS011;9435;52.122;5.502;2024-03-22T03:01:14;92.32;;;39.33;;
18610;SDS011;9435;52.122;5.502;2024-03-22T03:03:42;93.57;;;38.50;;
18610;SDS011;9435;52.122;5.502;2024-03-22T03:06:08;95.32;;;38.00;;
18610;SDS011;9435;52.122;5.502;2024-03-22T03:08:35;94.55;;;38.30;;
18610;SDS011;9435;52.122;5.502;2024-03-22T03:11:01;90.63;;;37.40;;
18610;SDS011;9435;52.122;5.502;2024-03-22T03:13:28;89.90;;;36.75;;
18610;SDS011;9435;52.122;5.502;2024-03-22T03:15:56;86.10;;;36.80;;
18610;SDS011;9435;52.122;5.502;2024-03-22T03:18:23;91.35;;;36.67;;
18610;SDS011;9435;52.122;5.502;2024-03-22T03:20:49;94.55;;;38.35;;
18610;SDS011;9435;52.122;5.502;2024-03-22T03:23:16;91.82;;;36.97;;
18610;SDS011;9435;52.122;5.502;2024-03-22T03:25:42;94.82;;;37.33;;
18610;SDS011;9435;52.122;5.502;2024-03-22T03:28:09;90.95;;;36.20;;
18610;SDS011;9435;52.122;5.502;2024-03-22T03:30:35;95.38;;;36.65;;
18610;SDS011;9435;52.122;5.502;2024-03-22T03:33:04;90.63;;;35.97;;
18610;SDS011;9435;52.122;5.502;2024-03-22T03:35:30;95.22;;;36.30;;
18610;SDS011;9435;52.122;5.502;2024-03-22T03:37:57;93.65;;;36.28;;
18610;SDS011;9435;52.122;5.502;2024-03-22T03:40:24;96.10;;;35.92;;
18610;SDS011;9435;52.122;5.502;2024-03-22T03:42:52;95.03;;;36.33;;
18610;SDS011;9435;52.122;5.502;2024-03-22T03:45:19;99.38;;;36.08;;
18610;SDS011;9435;52.122;5.502;2024-03-22T03:47:46;92.07;;;35.55;;
18610;SDS011;9435;52.122;5.502;2024-03-22T03:50:13;92.80;;;35.72;;
18610;SDS011;9435;52.122;5.502;2024-03-22T03:52:40;92.43;;;35.17;;
18610;SDS011;9435;52.122;5.502;2024-03-22T03:55:07;97.07;;;35.15;;
18610;SDS011;9435;52.122;5.502;2024-03-22T03:57:34;97.78;;;35.13;;
18610;SDS011;9435;52.122;5.502;2024-03-22T04:00:00;98.00;;;35.97;;
18610;SDS011;9435;52.122;5.502;2024-03-22T04:02:27;98.68;;;36.40;;
18610;SDS011;9435;52.122;5.502;2024-03-22T04:04:53;98.00;;;34.80;;
18610;SDS011;9435;52.122;5.502;2024-03-22T04:07:22;98.60;;;35.22;;
18610;SDS011;9435;52.122;5.502;2024-03-22T04:09:48;93.45;;;34.38;;
18610;SDS011;9435;52.122;5.502;2024-03-22T04:12:15;96.40;;;34.55;;
18610;SDS011;9435;52.122;5.502;2024-03-22T04:14:41;97.25;;;34.00;;
18610;SDS011;9435;52.122;5.502;2024-03-22T04:17:08;97.07;;;33.63;;
18610;SDS011;9435;52.122;5.502;2024-03-22T04:19:34;91.18;;;33.75;;
18610;SDS011;9435;52.122;5.502;2024-03-22T04:22:01;96.50;;;34.28;;
18610;SDS011;9435;52.122;5.502;2024-03-22T04:24:29;96.55;;;35.00;;
18610;SDS011;9435;52.122;5.502;2024-03-22T04:26:56;98.68;;;35.33;;
18610;SDS011;9435;52.122;5.502;2024-03-22T04:29:22;101.38;;;36.45;;
18610;SDS011;9435;52.122;5.502;2024-03-22T04:31:49;97.55;;;36.08;;
18610;SDS011;9435;52.122;5.502;2024-03-22T04:34:15;103.53;;;34.67;;
18610;SDS011;9435;52.122;5.502;2024-03-22T04:36:42;99.75;;;36.42;;
18610;SDS011;9435;52.122;5.502;2024-03-22T04:39:08;102.43;;;35.70;;
18610;SDS011;9435;52.122;5.502;2024-03-22T04:41:38;102.20;;;37.72;;
18610;SDS011;9435;52.122;5.502;2024-03-22T04:44:05;102.10;;;35.92;;
18610;SDS011;9435;52.122;5.502;2024-03-22T04:46:32;107.05;;;37.42;;
18610;SDS011;9435;52.122;5.502;2024-03-22T04:49:00;103.78;;;37.40;;
18610;SDS011;9435;52.122;5.502;2024-03-22T04:51:26;104.72;;;38.22;;
18610;SDS011;9435;52.122;5.502;2024-03-22T04:53:53;103.93;;;37.80;;
18610;SDS011;9435;52.122;5.502;2024-03-22T04:56:19;104.55;;;36.40;;
18610;SDS011;9435;52.122;5.502;2024-03-22T04:58:47;107.88;;;38.17;;
18610;SDS011;9435;52.122;5.502;2024-03-22T05:01:13;109.50;;;37.78;;
18610;SDS011;9435;52.122;5.502;2024-03-22T05:03:40;106.80;;;37.78;;
18610;SDS011;9435;52.122;5.502;2024-03-22T05:06:06;104.28;;;37.85;;
18610;SDS011;9435;52.122;5.502;2024-03-22T05:08:33;103.45;;;37.40;;
18610;SDS011;9435;52.122;5.502;2024-03-22T05:10:59;102.35;;;38.38;;
18610;SDS011;9435;52.122;5.502;2024-03-22T05:13:26;106.85;;;38.97;;
18610;SDS011;9435;52.122;5.502;2024-03-22T05:15:54;108.60;;;38.30;;
18610;SDS011;9435;52.122;5.502;2024-03-22T05:18:21;104.43;;;36.63;;
18610;SDS011;9435;52.122;5.502;2024-03-22T05:20:47;98.22;;;36.83;;
18610;SDS011;9435;52.122;5.502;2024-03-22T05:23:14;100.05;;;37.90;;
18610;SDS011;9435;52.122;5.502;2024-03-22T05:25:41;102.05;;;37.90;;
18610;SDS011;9435;52.122;5.502;2024-03-22T05:28:08;104.70;;;37.90;;
18610;SDS011;9435;52.122;5.502;2024-03-22T05:30:34;95.72;;;36.90;;
18610;SDS011;9435;52.122;5.502;2024-03-22T05:33:03;98.90;;;37.42;;
18610;SDS011;9435;52.122;5.502;2024-03-22T05:35:29;102.38;;;38.20;;
18610;SDS011;9435;52.122;5.502;2024-03-22T05:37:56;98.65;;;38.88;;
18610;SDS011;9435;52.122;5.502;2024-03-22T05:40:22;99.72;;;37.80;;
18610;SDS011;9435;52.122;5.502;2024-03-22T05:42:49;100.22;;;37.08;;
18610;SDS011;9435;52.122;5.502;2024-03-22T05:45:15;93.90;;;37.67;;
18610;SDS011;9435;52.122;5.502;2024-03-22T05:47:43;98.60;;;37.65;;
18610;SDS011;9435;52.122;5.502;2024-03-22T05:50:10;99.82;;;35.53;;
18610;SDS011;9435;52.122;5.502;2024-03-22T05:52:39;92.82;;;35.15;;
18610;SDS011;9435;52.122;5.502;2024-03-22T05:55:05;93.97;;;36.10;;
18610;SDS011;9435;52.122;5.502;2024-03-22T05:57:33;90.88;;;35.08;;
18610;SDS011;9435;52.122;5.502;2024-03-22T05:59:59;88.05;;;34.53;;
18610;SDS011;9435;52.122;5.502;2024-03-22T06:02:27;89.70;;;35.65;;
18610;SDS011;9435;52.122;5.502;2024-03-22T06:04:53;93.18;;;34.47;;
18610;SDS011;9435;52.122;5.502;2024-03-22T06:07:21;86.30;;;33.80;;
18610;SDS011;9435;52.122;5.502;2024-03-22T06:09:47;85.38;;;33.47;;
18610;SDS011;9435;52.122;5.502;2024-03-22T06:12:15;93.32;;;35.65;;
18610;SDS011;9435;52.122;5.502;2024-03-22T06:14:41;82.00;;;33.63;;
18610;SDS011;9435;52.122;5.502;2024-03-22T06:17:09;90.80;;;34.72;;
18610;SDS011;9435;52.122;5.502;2024-03-22T06:19:35;87.43;;;34.97;;
18610;SDS011;9435;52.122;5.502;2024-03-22T06:22:03;92.65;;;34.85;;
18610;SDS011;9435;52.122;5.502;2024-03-22T06:24:31;91.97;;;34.65;;
18610;SDS011;9435;52.122;5.502;2024-03-22T06:26:58;86.55;;;34.00;;
18610;SDS011;9435;52.122;5.502;2024-03-22T06:29:25;84.28;;;33.55;;
18610;SDS011;9435;52.122;5.502;2024-03-22T06:31:52;79.40;;;33.38;;
18610;SDS011;9435;52.122;5.502;2024-03-22T06:34:18;82.47;;;33.00;;
18610;SDS011;9435;52.122;5.502;2024-03-22T06:36:46;86.85;;;33.55;;
18610;SDS011;9435;52.122;5.502;2024-03-22T06:39:12;79.00;;;31.80;;
18610;SDS011;9435;52.122;5.502;2024-03-22T06:41:41;83.50;;;32.42;;
18610;SDS011;9435;52.122;5.502;2024-03-22T06:44:07;79.10;;;31.25;;
18610;SDS011;9435;52.122;5.502;2024-03-22T06:46:37;75.43;;;30.90;;
18610;SDS011;9435;52.122;5.502;2024-03-22T06:49:03;74.25;;;30.45;;
18610;SDS011;9435;52.122;5.502;2024-03-22T06:51:30;76.15;;;30.25;;
18610;SDS011;9435;52.122;5.502;2024-03-22T06:53:56;67.38;;;27.75;;
18610;SDS011;9435;52.122;5.502;2024-03-22T06:56:23;70.28;;;29.17;;
18610;SDS011;9435;52.122;5.502;2024-03-22T06:58:53;71.70;;;28.55;;
18610;SDS011;9435;52.122;5.502;2024-03-22T07:01:23;65.90;;;27.30;;
18610;SDS011;9435;52.122;5.502;2024-03-22T07:03:49;61.13;;;25.75;;
18610;SDS011;9435;52.122;5.502;2024-03-22T07:06:18;69.15;;;26.98;;
18610;SDS011;9435;52.122;5.502;2024-03-22T07:08:44;63.47;;;26.30;;
18610;SDS011;9435;52.122;5.502;2024-03-22T07:11:11;65.20;;;26.17;;
18610;SDS011;9435;52.122;5.502;2024-03-22T07:13:37;64.82;;;26.95;;
18610;SDS011;9435;52.122;5.502;2024-03-22T07:16:06;64.20;;;26.30;;
18610;SDS011;9435;52.122;5.502;2024-03-22T07:18:32;64.82;;;26.95;;
18610;SDS011;9435;52.122;5.502;2024-03-22T07:20:59;63.28;;;25.83;;
18610;SDS011;9435;52.122;5.502;2024-03-22T07:23:26;64.28;;;26.27;;
18610;SDS011;9435;52.122;5.502;2024-03-22T07:25:53;59.55;;;24.83;;
18610;SDS011;9435;52.122;5.502;2024-03-22T07:28:19;60.70;;;26.25;;
18610;SDS011;9435;52.122;5.502;2024-03-22T07:30:46;62.70;;;24.38;;
18610;SDS011;9435;52.122;5.502;2024-03-22T07:33:14;60.45;;;24.58;;
18610;SDS011;9435;52.122;5.502;2024-03-22T07:35:42;61.35;;;25.60;;
18610;SDS011;9435;52.122;5.502;2024-03-22T07:38:09;60.28;;;24.95;;
18610;SDS011;9435;52.122;5.502;2024-03-22T07:40:36;59.47;;;23.55;;
18610;SDS011;9435;52.122;5.502;2024-03-22T07:43:02;54.90;;;23.70;;
18610;SDS011;9435;52.122;5.502;2024-03-22T07:45:31;58.13;;;23.42;;
18610;SDS011;9435;52.122;5.502;2024-03-22T07:47:58;56.72;;;22.48;;
18610;SDS011;9435;52.122;5.502;2024-03-22T07:50:26;57.72;;;24.45;;
18610;SDS011;9435;52.122;5.502;2024-03-22T07:52:52;55.00;;;23.95;;
18610;SDS011;9435;52.122;5.502;2024-03-22T07:55:20;61.80;;;24.52;;
18610;SDS011;9435;52.122;5.502;2024-03-22T07:57:47;63.13;;;25.40;;
18610;SDS011;9435;52.122;5.502;2024-03-22T08:00:14;63.63;;;25.58;;
18610;SDS011;9435;52.122;5.502;2024-03-22T08:02:41;62.45;;;24.00;;
18610;SDS011;9435;52.122;5.502;2024-03-22T08:05:08;64.00;;;24.73;;
18610;SDS011;9435;52.122;5.502;2024-03-22T08:07:36;62.40;;;25.77;;
18610;SDS011;9435;52.122;5.502;2024-03-22T08:10:03;62.78;;;25.33;;
18610;SDS011;9435;52.122;5.502;2024-03-22T08:12:30;61.60;;;25.40;;
18610;SDS011;9435;52.122;5.502;2024-03-22T08:14:57;63.85;;;26.40;;
18610;SDS011;9435;52.122;5.502;2024-03-22T08:17:23;63.85;;;26.77;;
18610;SDS011;9435;52.122;5.502;2024-03-22T08:19:50;70.85;;;26.85;;
18610;SDS011;9435;52.122;5.502;2024-03-22T08:22:16;63.03;;;25.50;;
18610;SDS011;9435;52.122;5.502;2024-03-22T08:24:45;61.50;;;25.23;;
18610;SDS011;9435;52.122;5.502;2024-03-22T08:27:11;65.03;;;26.15;;
18610;SDS011;9435;52.122;5.502;2024-03-22T08:29:39;66.13;;;26.70;;
18610;SDS011;9435;52.122;5.502;2024-03-22T08:32:06;69.43;;;26.60;;
18610;SDS011;9435;52.122;5.502;2024-03-22T08:34:33;66.82;;;26.10;;
18610;SDS011;9435;52.122;5.502;2024-03-22T08:36:59;64.28;;;26.52;;
18610;SDS011;9435;52.122;5.502;2024-03-22T08:39:28;67.00;;;26.88;;
18610;SDS011;9435;52.122;5.502;2024-03-22T08:41:56;66.35;;;26.10;;
18610;SDS011;9435;52.122;5.502;2024-03-22T08:44:23;62.97;;;25.10;;
18610;SDS011;9435;52.122;5.502;2024-03-22T08:46:49;66.57;;;26.60;;
18610;SDS011;9435;52.122;5.502;2024-03-22T08:49:17;64.53;;;26.80;;
18610;SDS011;9435;52.122;5.502;2024-03-22T08:51:44;63.72;;;25.73;;
18610;SDS011;9435;52.122;5.502;2024-03-22T08:54:13;69.38;;;26.52;;
18610;SDS011;9435;52.122;5.502;2024-03-22T08:56:39;67.30;;;25.95;;
18610;SDS011;9435;52.122;5.502;2024-03-22T08:59:08;57.78;;;25.58;;
18610;SDS011;9435;52.122;5.502;2024-03-22T09:01:35;58.63;;;24.85;;
18610;SDS011;9435;52.122;5.502;2024-03-22T09:04:02;56.58;;;23.73;;
18610;SDS011;9435;52.122;5.502;2024-03-22T09:06:28;59.17;;;23.52;;
18610;SDS011;9435;52.122;5.502;2024-03-22T09:08:56;59.20;;;23.73;;
18610;SDS011;9435;52.122;5.502;2024-03-22T09:11:23;51.00;;;22.65;;
18610;SDS011;9435;52.122;5.502;2024-03-22T09:13:51;51.33;;;21.05;;
18610;SDS011;9435;52.122;5.502;2024-03-22T09:16:18;50.33;;;21.80;;
18610;SDS011;9435;52.122;5.502;2024-03-22T09:18:46;57.03;;;21.20;;
18610;SDS011;9435;52.122;5.502;2024-03-22T09:21:12;51.70;;;21.45;;
18610;SDS011;9435;52.122;5.502;2024-03-22T09:23:39;47.47;;;20.40;;
18610;SDS011;9435;52.122;5.502;2024-03-22T09:26:05;49.78;;;20.17;;
18610;SDS011;9435;52.122;5.502;2024-03-22T09:28:32;54.20;;;21.58;;
18610;SDS011;9435;52.122;5.502;2024-03-22T09:31:02;57.70;;;21.83;;
18610;SDS011;9435;52.122;5.502;2024-03-22T09:33:32;53.83;;;22.40;;
18610;SDS011;9435;52.122;5.502;2024-03-22T09:35:58;54.20;;;21.85;;
18610;SDS011;9435;52.122;5.502;2024-03-22T09:38:25;61.15;;;22.92;;
18610;SDS011;9435;52.122;5.502;2024-03-22T09:40:52;54.83;;;22.98;;
18610;SDS011;9435;52.122;5.502;2024-03-22T09:43:20;61.95;;;23.17;;
18610;SDS011;9435;52.122;5.502;2024-03-22T09:45:47;55.63;;;21.90;;
18610;SDS011;9435;52.122;5.502;2024-03-22T09:48:16;55.60;;;21.95;;
18610;SDS011;9435;52.122;5.502;2024-03-22T09:50:45;52.50;;;21.20;;
18610;SDS011;9435;52.122;5.502;2024-03-22T09:53:13;49.78;;;21.20;;
18610;SDS011;9435;52.122;5.502;2024-03-22T09:55:43;51.20;;;21.30;;
18610;SDS011;9435;52.122;5.502;2024-03-22T09:58:11;48.17;;;20.50;;
18610;SDS011;9435;52.122;5.502;2024-03-22T10:00:37;42.55;;;19.00;;
18610;SDS011;9435;52.122;5.502;2024-03-22T10:03:05;46.60;;;20.40;;
18610;SDS011;9435;52.122;5.502;2024-03-22T10:05:33;47.80;;;19.92;;
18610;SDS011;9435;52.122;5.502;2024-03-22T10:08:01;52.50;;;19.92;;
18610;SDS011;9435;52.122;5.502;2024-03-22T10:10:28;45.40;;;18.65;;
18610;SDS011;9435;52.122;5.502;2024-03-22T10:12:55;51.05;;;18.95;;
18610;SDS011;9435;52.122;5.502;2024-03-22T10:15:23;41.90;;;18.15;;
18610;SDS011;9435;52.122;5.502;2024-03-22T10:17:51;40.22;;;17.73;;
18610;SDS011;9435;52.122;5.502;2024-03-22T10:20:19;43.65;;;18.02;;
18610;SDS011;9435;52.122;5.502;2024-03-22T10:22:48;38.97;;;17.48;;
18610;SDS011;9435;52.122;5.502;2024-03-22T10:25:21;37.50;;;17.80;;
18610;SDS011;9435;52.122;5.502;2024-03-22T10:27:49;36.20;;;16.52;;
18610;SDS011;9435;52.122;5.502;2024-03-22T10:30:16;33.30;;;16.45;;
18610;SDS011;9435;52.122;5.502;2024-03-22T10:32:43;34.97;;;15.90;;
18610;SDS011;9435;52.122;5.502;2024-03-22T10:35:11;32.00;;;15.75;;
18610;SDS011;9435;52.122;5.502;2024-03-22T10:37:39;31.65;;;15.45;;
18610;SDS011;9435;52.122;5.502;2024-03-22T10:40:05;32.40;;;14.80;;
18610;SDS011;9435;52.122;5.502;2024-03-22T10:42:36;32.33;;;14.73;;
18610;SDS011;9435;52.122;5.502;2024-03-22T10:45:03;29.73;;;14.93;;
18610;SDS011;9435;52.122;5.502;2024-03-22T10:47:31;31.15;;;15.32;;
18610;SDS011;9435;52.122;5.502;2024-03-22T10:50:01;32.75;;;15.25;;
18610;SDS011;9435;52.122;5.502;2024-03-22T10:52:32;31.65;;;15.85;;
18610;SDS011;9435;52.122;5.502;2024-03-22T10:55:01;33.10;;;16.10;;
18610;SDS011;9435;52.122;5.502;2024-03-22T10:57:31;36.55;;;15.57;;
18610;SDS011;9435;52.122;5.502;2024-03-22T11:00:03;32.17;;;15.25;;
18610;SDS011;9435;52.122;5.502;2024-03-22T11:02:35;34.30;;;14.90;;
18610;SDS011;9435;52.122;5.502;2024-03-22T11:05:03;33.53;;;15.63;;
18610;SDS011;9435;52.122;5.502;2024-03-22T11:07:32;31.67;;;16.15;;
18610;SDS011;9435;52.122;5.502;2024-03-22T11:10:00;34.67;;;16.83;;
18610;SDS011;9435;52.122;5.502;2024-03-22T11:12:28;33.03;;;16.52;;
18610;SDS011;9435;52.122;5.502;2024-03-22T11:14:58;34.75;;;16.80;;
18610;SDS011;9435;52.122;5.502;2024-03-22T11:17:27;31.55;;;16.10;;
18610;SDS011;9435;52.122;5.502;2024-03-22T11:19:53;31.40;;;16.55;;
18610;SDS011;9435;52.122;5.502;2024-03-22T11:22:20;33.97;;;16.25;;
18610;SDS011;9435;52.122;5.502;2024-03-22T11:24:46;29.20;;;15.65;;
18610;SDS011;9435;52.122;5.502;2024-03-22T11:27:13;31.00;;;15.18;;
18610;SDS011;9435;52.122;5.502;2024-03-22T11:29:40;29.83;;;15.30;;
18610;SDS011;9435;52.122;5.502;2024-03-22T11:32:09;28.95;;;15.05;;
18610;SDS011;9435;52.122;5.502;2024-03-22T11:34:36;30.60;;;15.13;;
18610;SDS011;9435;52.122;5.502;2024-03-22T11:37:06;27.63;;;13.68;;
18610;SDS011;9435;52.122;5.502;2024-03-22T11:39:32;28.13;;;14.20;;
18610;SDS011;9435;52.122;5.502;2024-03-22T11:42:00;24.42;;;13.02;;
18610;SDS011;9435;52.122;5.502;2024-03-22T11:44:29;24.52;;;13.77;;
18610;SDS011;9435;52.122;5.502;2024-03-22T11:46:59;27.38;;;13.23;;
18610;SDS011;9435;52.122;5.502;2024-03-22T11:49:25;23.17;;;13.00;;
18610;SDS011;9435;52.122;5.502;2024-03-22T11:51:54;22.85;;;12.27;;
18610;SDS011;9435;52.122;5.502;2024-03-22T11:54:21;23.50;;;12.55;;
18610;SDS011;9435;52.122;5.502;2024-03-22T11:56:48;23.25;;;11.82;;
18610;SDS011;9435;52.122;5.502;2024-03-22T11:59:15;23.17;;;11.25;;
18610;SDS011;9435;52.122;5.502;2024-03-22T12:01:45;20.98;;;11.32;;
18610;SDS011;9435;52.122;5.502;2024-03-22T12:04:11;19.77;;;10.77;;
18610;SDS011;9435;52.122;5.502;2024-03-22T12:06:40;17.80;;;9.48;;
18610;SDS011;9435;52.122;5.502;2024-03-22T12:09:08;19.42;;;9.23;;
18610;SDS011;9435;52.122;5.502;2024-03-22T12:11:37;16.13;;;8.65;;
18610;SDS011;9435;52.122;5.502;2024-03-22T12:14:03;14.35;;;8.43;;
18610;SDS011;9435;52.122;5.502;2024-03-22T12:16:30;13.80;;;8.07;;
18610;SDS011;9435;52.122;5.502;2024-03-22T12:18:57;13.23;;;7.40;;
18610;SDS011;9435;52.122;5.502;2024-03-22T12:21:24;12.10;;;7.07;;
18610;SDS011;9435;52.122;5.502;2024-03-22T12:23:50;11.73;;;6.68;;
18610;SDS011;9435;52.122;5.502;2024-03-22T12:26:19;12.15;;;6.78;;
18610;SDS011;9435;52.122;5.502;2024-03-22T12:28:45;11.18;;;7.03;;
18610;SDS011;9435;52.122;5.502;2024-03-22T12:31:12;11.38;;;6.88;;
18610;SDS011;9435;52.122;5.502;2024-03-22T12:33:38;10.57;;;6.20;;
18610;SDS011;9435;52.122;5.502;2024-03-22T12:36:05;11.93;;;6.47;;
18610;SDS011;9435;52.122;5.502;2024-03-22T12:38:31;11.00;;;6.45;;
18610;SDS011;9435;52.122;5.502;2024-03-22T12:40:58;11.80;;;7.13;;
18610;SDS011;9435;52.122;5.502;2024-03-22T12:43:26;13.50;;;7.40;;
18610;SDS011;9435;52.122;5.502;2024-03-22T12:45:53;14.23;;;7.60;;
18610;SDS011;9435;52.122;5.502;2024-03-22T12:48:19;15.25;;;7.95;;
18610;SDS011;9435;52.122;5.502;2024-03-22T12:50:46;14.10;;;7.63;;
18610;SDS011;9435;52.122;5.502;2024-03-22T12:53:12;15.07;;;8.43;;
18610;SDS011;9435;52.122;5.502;2024-03-22T12:55:39;16.85;;;8.88;;
18610;SDS011;9435;52.122;5.502;2024-03-22T12:58:05;16.65;;;9.05;;
18610;SDS011;9435;52.122;5.502;2024-03-22T13:00:34;19.92;;;8.80;;
18610;SDS011;9435;52.122;5.502;2024-03-22T13:03:00;19.25;;;10.02;;
18610;SDS011;9435;52.122;5.502;2024-03-22T13:05:27;20.83;;;9.13;;
18610;SDS011;9435;52.122;5.502;2024-03-22T13:07:55;20.05;;;9.40;;
18610;SDS011;9435;52.122;5.502;2024-03-22T13:10:22;22.75;;;10.07;;
18610;SDS011;9435;52.122;5.502;2024-03-22T13:12:48;23.40;;;10.05;;
18610;SDS011;9435;52.122;5.502;2024-03-22T13:15:15;23.35;;;10.00;;
18610;SDS011;9435;52.122;5.502;2024-03-22T13:17:43;20.33;;;9.90;;
18610;SDS011;9435;52.122;5.502;2024-03-22T13:20:10;20.50;;;10.10;;
18610;SDS011;9435;52.122;5.502;2024-03-22T13:22:39;22.92;;;10.30;;
18610;SDS011;9435;52.122;5.502;2024-03-22T13:25:07;19.63;;;9.90;;
18610;SDS011;9435;52.122;5.502;2024-03-22T13:27:35;22.63;;;10.23;;
18610;SDS011;9435;52.122;5.502;2024-03-22T13:30:04;21.88;;;9.90;;
18610;SDS011;9435;52.122;5.502;2024-03-22T13:32:35;19.23;;;10.10;;
18610;SDS011;9435;52.122;5.502;2024-03-22T13:35:04;22.00;;;10.07;;
18610;SDS011;9435;52.122;5.502;2024-03-22T13:37:30;20.25;;;9.80;;
18610;SDS011;9435;52.122;5.502;2024-03-22T13:39:57;21.50;;;9.60;;
18610;SDS011;9435;52.122;5.502;2024-03-22T13:42:24;26.10;;;11.10;;
18610;SDS011;9435;52.122;5.502;2024-03-22T13:44:51;20.38;;;11.05;;
18610;SDS011;9435;52.122;5.502;2024-03-22T13:47:18;20.63;;;10.40;;
18610;SDS011;9435;52.122;5.502;2024-03-22T13:49:45;24.60;;;10.65;;
18610;SDS011;9435;52.122;5.502;2024-03-22T13:52:12;22.13;;;10.10;;
18610;SDS011;9435;52.122;5.502;2024-03-22T13:54:39;23.90;;;10.80;;
18610;SDS011;9435;52.122;5.502;2024-03-22T13:57:05;22.73;;;9.70;;
18610;SDS011;9435;52.122;5.502;2024-03-22T13:59:32;17.98;;;9.90;;
18610;SDS011;9435;52.122;5.502;2024-03-22T14:01:58;20.13;;;10.07;;
18610;SDS011;9435;52.122;5.502;2024-03-22T14:04:27;25.73;;;10.57;;
18610;SDS011;9435;52.122;5.502;2024-03-22T14:06:54;24.23;;;11.00;;
18610;SDS011;9435;52.122;5.502;2024-03-22T14:09:22;26.77;;;11.55;;
18610;SDS011;9435;52.122;5.502;2024-03-22T14:11:48;23.83;;;11.13;;
18610;SDS011;9435;52.122;5.502;2024-03-22T14:14:16;24.38;;;11.05;;
18610;SDS011;9435;52.122;5.502;2024-03-22T14:16:42;25.92;;;11.85;;
18610;SDS011;9435;52.122;5.502;2024-03-22T14:19:09;29.10;;;11.73;;
18610;SDS011;9435;52.122;5.502;2024-03-22T14:21:35;24.65;;;10.98;;
18610;SDS011;9435;52.122;5.502;2024-03-22T14:24:03;24.83;;;11.00;;
18610;SDS011;9435;52.122;5.502;2024-03-22T14:26:31;24.60;;;11.77;;
18610;SDS011;9435;52.122;5.502;2024-03-22T14:28:58;24.85;;;11.30;;
18610;SDS011;9435;52.122;5.502;2024-03-22T14:31:24;26.65;;;11.60;;
18610;SDS011;9435;52.122;5.502;2024-03-22T14:33:51;25.75;;;11.23;;